createdAt,value
2023-03-01T00:00:02.330Z,-6.22
2023-03-01T00:05:02.221Z,-6.43
2023-03-01T00:10:03.032Z,-6.47
2023-03-01T00:15:02.766Z,-6.06
2023-03-01T00:20:02.557Z,-5.84
2023-03-01T00:25:02.694Z,-5.66
2023-03-01T00:30:02.393Z,-5.49
2023-03-01T00:35:03.001Z,-5.17
2023-03-01T00:40:02.645Z,-5.04
2023-03-01T00:45:02.446Z,-5.94
2023-03-01T00:50:02.369Z,-6.07
2023-03-01T00:55:03.030Z,-5.95
2023-03-01T01:00:02.309Z,-6.32
2023-03-01T01:05:03.098Z,-6.07
2023-03-01T01:10:02.411Z,-6.06
2023-03-01T01:15:03.225Z,-6.51
2023-03-01T01:20:02.956Z,-6.61
2023-03-01T01:25:02.700Z,-6.91
2023-03-01T01:30:02.534Z,-6.25
2023-03-01T01:35:02.470Z,-6.43
2023-03-01T01:40:02.181Z,-6.33
2023-03-01T01:45:02.962Z,-6.34
2023-03-01T01:50:03.135Z,-6.58
2023-03-01T01:55:03.546Z,-7.61
2023-03-01T02:00:02.748Z,-7.05
2023-03-01T02:05:02.391Z,-6.82
2023-03-01T02:10:02.237Z,-7.39
2023-03-01T02:15:02.876Z,-7.53
2023-03-01T02:20:03.138Z,-7.14
2023-03-01T02:25:02.937Z,-6.85
2023-03-01T02:30:02.698Z,-6.63
2023-03-01T02:35:02.781Z,-6.98
2023-03-01T02:40:02.914Z,-7.32
2023-03-01T02:45:02.628Z,-7.87
2023-03-01T02:50:02.458Z,-7.89
2023-03-01T02:55:03.101Z,-7.42
2023-03-01T03:00:02.780Z,-6.69
2023-03-01T03:05:02.413Z,-6.82
2023-03-01T03:10:02.237Z,-7.06
2023-03-01T03:15:03.016Z,-7.48
2023-03-01T03:20:02.612Z,-7.72
2023-03-01T03:25:02.410Z,-7.82
2023-03-01T03:30:03.135Z,-7.54
2023-03-01T03:35:02.785Z,-6.86
2023-03-01T03:40:02.517Z,-6.66
2023-03-01T03:45:02.557Z,-6.87
2023-03-01T03:50:02.472Z,-7.5
2023-03-01T03:55:03.284Z,-7.42
2023-03-01T04:00:02.463Z,-7.73
2023-03-01T04:05:02.339Z,-7.62
2023-03-01T04:10:03.185Z,-7.52
2023-03-01T04:15:02.919Z,-7.05
2023-03-01T04:20:02.766Z,-7.42
2023-03-01T04:25:02.556Z,-7.61
2023-03-01T04:30:02.476Z,-7.49
2023-03-01T04:35:03.155Z,-7.11
2023-03-01T04:40:02.914Z,-7.46
2023-03-01T04:45:02.799Z,-7.64
2023-03-01T04:50:02.420Z,-7.96
2023-03-01T04:55:03.592Z,-7.56
2023-03-01T05:00:02.850Z,-7.8
2023-03-01T05:05:02.630Z,-7.8
2023-03-01T05:10:02.347Z,-7.9
2023-03-01T05:15:02.333Z,-8.38
2023-03-01T05:20:02.215Z,-8.54
2023-03-01T05:25:03.196Z,-8.62
2023-03-01T05:30:03.111Z,-8.74
2023-03-01T05:35:02.874Z,-8.74
2023-03-01T05:40:02.581Z,-8.49
2023-03-01T05:45:02.456Z,-9.08
2023-03-01T05:50:03.175Z,-8.96
2023-03-01T05:55:03.768Z,-8.72
2023-03-01T06:00:03.517Z,-8.29
2023-03-01T06:05:02.709Z,-8.75
2023-03-01T06:10:02.962Z,-8.54
2023-03-01T06:15:02.944Z,-7.86
2023-03-01T06:20:02.791Z,-7.64
2023-03-01T06:25:02.311Z,-8.03
2023-03-01T06:30:03.129Z,-7.67
2023-03-01T06:35:03.008Z,-7.5
2023-03-01T06:40:02.690Z,-7.61
2023-03-01T06:45:02.551Z,-5.09
2023-03-01T06:50:02.472Z,-2.42
2023-03-01T06:55:03.115Z,-1.65
2023-03-01T07:00:03.090Z,-1.51
2023-03-01T07:05:02.907Z,-0.99
2023-03-01T07:10:02.958Z,0.3
2023-03-01T07:15:02.715Z,0.56
2023-03-01T07:20:02.809Z,1.44
2023-03-01T07:25:02.666Z,1.81
2023-03-01T07:30:02.502Z,1.88
2023-03-01T07:35:03.154Z,2.03
2023-03-01T07:40:03.031Z,1.11
2023-03-01T07:45:02.742Z,1.2
2023-03-01T07:50:02.401Z,0.12
2023-03-01T07:55:03.785Z,0.73
2023-03-01T08:00:02.866Z,1.28
2023-03-01T08:05:02.588Z,1.18
2023-03-01T08:10:02.429Z,2.46
2023-03-01T08:15:02.859Z,2.64
2023-03-01T08:20:02.298Z,4.09
2023-03-01T08:25:03.025Z,3.33
2023-03-01T08:30:03.177Z,3.76
2023-03-01T08:35:02.882Z,3.31
2023-03-01T08:40:02.665Z,3.45
2023-03-01T08:45:02.519Z,3.43
2023-03-01T08:50:03.151Z,3.73
2023-03-01T08:55:03.587Z,4.01
2023-03-01T09:00:02.584Z,4.04
2023-03-01T09:05:02.468Z,4.85
2023-03-01T09:10:02.990Z,4.23
2023-03-01T09:15:02.935Z,5.78
2023-03-01T09:20:02.782Z,4.48
2023-03-01T09:25:02.470Z,3.6
2023-03-01T09:30:02.291Z,4.31
2023-03-01T09:35:03.124Z,6.26
2023-03-01T09:40:02.841Z,5.05
2023-03-01T09:45:02.565Z,4.68
2023-03-01T09:50:02.666Z,5.24
2023-03-01T09:55:03.041Z,5.04
2023-03-01T10:00:03.201Z,4.98
2023-03-01T10:05:02.960Z,5.27
2023-03-01T10:10:02.664Z,4.74
2023-03-01T10:15:02.376Z,5.53
2023-03-01T10:20:02.240Z,4.66
2023-03-01T10:25:03.125Z,4.92
2023-03-01T10:30:02.857Z,4.9
2023-03-01T10:35:02.581Z,5.52
2023-03-01T10:40:02.572Z,4.72
2023-03-01T10:45:02.461Z,5.62
2023-03-01T10:50:03.113Z,5.43
2023-03-01T10:55:04.549Z,5.78
2023-03-01T11:00:03.266Z,6.06
2023-03-01T11:05:02.950Z,6.19
2023-03-01T11:10:02.373Z,5.6
2023-03-01T11:15:03.137Z,6.51
2023-03-01T11:20:03.257Z,5.73
2023-03-01T11:25:09.839Z,6.28
2023-03-01T11:30:02.789Z,6.15
2023-03-01T11:35:02.330Z,5.68
2023-03-01T11:40:03.101Z,6.4
2023-03-01T11:45:02.768Z,7.05
2023-03-01T11:50:03.099Z,6.5
2023-03-01T11:55:03.515Z,6.95
2023-03-01T12:00:02.859Z,6.76
2023-03-01T12:05:02.755Z,7.76
2023-03-01T12:10:02.919Z,8.05
2023-03-01T12:15:02.520Z,7.76
2023-03-01T12:20:02.404Z,7.41
2023-03-01T12:25:03.137Z,6.82
2023-03-01T12:30:02.868Z,7.51
2023-03-01T12:35:02.889Z,6.7
2023-03-01T12:40:02.764Z,7.52
2023-03-01T12:45:02.520Z,7.99
2023-03-01T12:50:03.189Z,7.96
2023-03-01T12:55:03.804Z,7.81
2023-03-01T13:00:02.854Z,8.77
2023-03-01T13:05:02.559Z,7.56
2023-03-01T13:10:02.342Z,7.42
2023-03-01T13:15:02.255Z,7.1
2023-03-01T13:20:03.014Z,7.17
2023-03-01T13:25:02.652Z,7.2
2023-03-01T13:30:02.614Z,7.37
2023-03-01T13:35:03.119Z,7.27
2023-03-01T13:40:02.843Z,7.4
2023-03-01T13:45:02.870Z,7.39
2023-03-01T13:50:02.842Z,7.51
2023-03-01T13:55:03.362Z,7.48
2023-03-01T14:00:02.518Z,8.03
2023-03-01T14:05:02.268Z,7.31
2023-03-01T14:10:02.585Z,7.97
2023-03-01T14:15:02.979Z,7.61
2023-03-01T14:20:02.945Z,8
2023-03-01T14:25:02.900Z,7.74
2023-03-01T14:30:02.755Z,7.47
2023-03-01T14:35:02.585Z,7.09
2023-03-01T14:40:02.281Z,7.58
2023-03-01T14:45:03.081Z,7.42
2023-03-01T14:50:02.884Z,7.86
2023-03-01T14:55:03.374Z,8.08
2023-03-01T15:00:02.759Z,7.67
2023-03-01T15:05:02.405Z,7.34
2023-03-01T15:10:03.620Z,7.61
2023-03-01T15:15:04.540Z,7.3
2023-03-01T15:20:02.810Z,7.58
2023-03-01T15:25:02.720Z,7.31
2023-03-01T15:30:03.320Z,7.6
2023-03-01T15:35:02.953Z,8.34
2023-03-01T15:40:02.876Z,7.13
2023-03-01T15:45:02.717Z,7.69
2023-03-01T15:50:03.414Z,6.96
2023-03-01T15:55:03.589Z,6.59
2023-03-01T16:00:02.672Z,6.33
2023-03-01T16:05:02.337Z,6.78
2023-03-01T16:10:02.407Z,6.07
2023-03-01T16:15:02.969Z,5.33
2023-03-01T16:20:02.894Z,5.11
2023-03-01T16:25:02.732Z,4.96
2023-03-01T16:30:02.456Z,4.81
2023-03-01T16:35:02.271Z,4.64
2023-03-01T16:40:03.085Z,4.27
2023-03-01T16:45:03.969Z,3.8
2023-03-01T16:50:02.815Z,3.53
2023-03-01T16:55:03.413Z,2.51
2023-03-01T17:00:03.370Z,2.37
2023-03-01T17:05:02.895Z,2.35
2023-03-01T17:10:02.658Z,1.72
2023-03-01T17:15:02.653Z,1.96
2023-03-01T17:20:04.653Z,2.14
2023-03-01T17:25:02.369Z,2.02
2023-03-01T17:30:03.135Z,1.76
2023-03-01T17:35:02.817Z,1.81
2023-03-01T17:40:02.514Z,1.46
2023-03-01T17:45:02.342Z,1.15
2023-03-01T17:50:02.242Z,0.95
2023-03-01T17:55:03.760Z,0.83
2023-03-01T18:00:02.720Z,0.41
2023-03-01T18:05:02.461Z,-0.28
2023-03-01T18:10:02.958Z,-0.39
2023-03-01T18:15:02.748Z,-0.49
2023-03-01T18:20:02.386Z,-0.88
2023-03-01T18:25:03.193Z,-1.98
2023-03-01T18:30:02.949Z,-2.99
2023-03-01T18:35:02.653Z,-1.83
2023-03-01T18:40:02.460Z,-1.41
2023-03-01T18:45:02.283Z,-1.24
2023-03-01T18:50:02.939Z,-0.29
2023-03-01T18:55:03.678Z,-0.92
2023-03-01T19:00:02.789Z,-1.58
2023-03-01T19:05:02.281Z,-1.52
2023-03-01T19:10:02.918Z,-2.07
2023-03-01T19:15:02.759Z,-2.3
2023-03-01T19:20:02.532Z,-2.47
2023-03-01T19:25:02.422Z,-2.06
2023-03-01T19:30:02.511Z,-1.77
2023-03-01T19:35:02.440Z,-2.14
2023-03-01T19:40:03.122Z,-2.88
2023-03-01T19:45:02.833Z,-3.51
2023-03-01T19:50:02.648Z,-3.81
2023-03-01T19:55:10.250Z,-4.28
2023-03-01T20:00:03.179Z,-4.44
2023-03-01T20:05:02.814Z,-4.06
2023-03-01T20:10:02.543Z,-4.53
2023-03-01T20:15:02.284Z,-4.67
2023-03-01T20:20:03.483Z,-3.51
2023-03-01T20:25:02.925Z,-3.41
2023-03-01T20:30:02.678Z,-3.51
2023-03-01T20:35:02.388Z,-3.02
2023-03-01T20:40:03.189Z,-3.33
2023-03-01T20:45:02.904Z,-3.44
2023-03-01T20:50:02.587Z,-2.61
2023-03-01T20:55:02.823Z,-2.21
2023-03-01T21:00:03.058Z,-2.65
2023-03-01T21:05:02.737Z,-2.88
2023-03-01T21:10:02.476Z,-3.36
2023-03-01T21:15:03.248Z,-3.51
2023-03-01T21:20:02.933Z,-3.65
2023-03-01T21:25:02.722Z,-3.5
2023-03-01T21:30:02.617Z,-3.61
2023-03-01T21:35:02.240Z,-3.62
2023-03-01T21:40:03.020Z,-3.49
2023-03-01T21:45:02.779Z,-3.77
2023-03-01T21:50:02.801Z,-5.13
2023-03-01T21:55:03.395Z,-5.75
2023-03-01T22:00:02.400Z,-5.35
2023-03-01T22:05:02.443Z,-5.53
2023-03-01T22:10:03.189Z,-5.73
2023-03-01T22:15:02.979Z,-5.51
2023-03-01T22:20:02.697Z,-5.26
2023-03-01T22:25:02.472Z,-5.07
2023-03-01T22:30:03.206Z,-5.13
2023-03-01T22:35:03.097Z,-4.52
2023-03-01T22:40:02.796Z,-4.44
2023-03-01T22:45:02.858Z,-4.39
2023-03-01T22:50:02.549Z,-4.2
2023-03-01T22:55:03.724Z,-3.66
2023-03-01T23:00:02.725Z,-3.1
2023-03-01T23:05:02.659Z,-3.18
2023-03-01T23:10:02.457Z,-3.17
2023-03-01T23:15:02.315Z,-3.04
2023-03-01T23:20:03.061Z,-2.97
2023-03-01T23:25:02.865Z,-3.05
2023-03-01T23:30:02.650Z,-3.02
2023-03-01T23:35:02.514Z,-2.8
2023-03-01T23:40:02.355Z,-2.73
2023-03-01T23:45:03.165Z,-2.65
2023-03-01T23:50:02.810Z,-2.58
2023-03-01T23:55:03.530Z,-2.58
